Time;durP1;ratioP1;P1;durP2;ratioP2;P2;SDS_P1;SDS_P2;PMS_P1;PMS_P2;Temp;Humidity;BMP_temperature;BMP_pressure;BME280_temperature;BME280_humidity;BME280_pressure;Samples;Min_cycle;Max_cycle;Signal;HPM_P1;HPM_P2
2024/01/18 00:02:28;;;;;;;19.45;9.82;;;;;;;;;;10335121;28;20311;-68
2024/01/18 00:07:30;;;;;;;18.02;10.10;;;;;;;;;;10319262;28;20269;-68
2024/01/18 00:12:31;;;;;;;17.60;9.85;;;;;;;;;;10321521;28;20196;-68
2024/01/18 00:17:32;;;;;;;17.10;9.35;;;;;;;;;;10323686;28;20189;-68
2024/01/18 00:22:33;;;;;;;17.48;8.55;;;;;;;;;;10299521;28;20216;-68
2024/01/18 00:27:34;;;;;;;20.13;8.88;;;;;;;;;;10330161;28;20213;-68
2024/01/18 00:32:36;;;;;;;19.98;9.60;;;;;;;;;;10327058;28;20902;-68
2024/01/18 00:37:37;;;;;;;14.68;8.02;;;;;;;;;;10311539;28;20510;-68
2024/01/18 00:42:38;;;;;;;22.60;10.48;;;;;;;;;;10318254;28;20197;-68
2024/01/18 00:47:39;;;;;;;19.67;9.50;;;;;;;;;;10338505;28;20205;-68
2024/01/18 00:52:39;;;;;;;15.45;8.48;;;;;;;;;;10309015;28;20200;-68
2024/01/18 00:57:41;;;;;;;18.15;9.40;;;;;;;;;;10314473;28;20874;-68
2024/01/18 01:02:42;;;;;;;15.50;8.95;;;;;;;;;;10327768;28;20221;-68
2024/01/18 01:07:43;;;;;;;14.13;8.00;;;;;;;;;;10309939;28;20231;-68
2024/01/18 01:12:44;;;;;;;16.65;8.00;;;;;;;;;;10322338;28;20185;-68
2024/01/18 01:17:46;;;;;;;12.00;7.47;;;;;;;;;;10312869;28;20185;-69
2024/01/18 01:22:47;;;;;;;14.40;8.75;;;;;;;;;;10292936;28;20206;-68
2024/01/18 01:27:48;;;;;;;15.05;8.05;;;;;;;;;;10345374;28;20817;-68
2024/01/18 01:32:49;;;;;;;17.77;7.97;;;;;;;;;;10308662;28;20224;-68
2024/01/18 01:37:50;;;;;;;22.55;8.38;;;;;;;;;;10317988;28;20686;-68
2024/01/18 01:42:51;;;;;;;15.48;7.75;;;;;;;;;;10284186;28;20219;-68
2024/01/18 01:47:53;;;;;;;13.48;7.90;;;;;;;;;;10316772;28;21086;-68
2024/01/18 01:52:54;;;;;;;13.90;7.20;;;;;;;;;;10309468;28;20632;-68
2024/01/18 01:57:55;;;;;;;12.13;7.40;;;;;;;;;;10296154;28;20756;-68
2024/01/18 02:02:56;;;;;;;10.85;6.82;;;;;;;;;;10319022;28;20212;-68
2024/01/18 02:07:57;;;;;;;13.70;7.20;;;;;;;;;;10305615;28;20216;-69
2024/01/18 02:13:00;;;;;;;13.98;6.72;;;;;;;;;;10327963;28;20220;-68
2024/01/18 02:18:01;;;;;;;10.90;6.97;;;;;;;;;;10303871;28;20228;-68
2024/01/18 02:23:04;;;;;;;10.80;6.07;;;;;;;;;;10307562;28;20213;-68
2024/01/18 02:28:05;;;;;;;12.30;6.95;;;;;;;;;;10314799;28;20831;-69
2024/01/18 02:33:06;;;;;;;13.75;6.47;;;;;;;;;;10312572;28;20239;-68
2024/01/18 02:38:07;;;;;;;9.50;6.93;;;;;;;;;;10287848;28;20195;-68
2024/01/18 02:43:08;;;;;;;11.75;6.45;;;;;;;;;;10306964;28;20644;-68
2024/01/18 02:48:10;;;;;;;13.00;6.63;;;;;;;;;;10292864;28;20220;-68
2024/01/18 02:53:11;;;;;;;19.98;8.18;;;;;;;;;;10305836;28;20212;-68
2024/01/18 02:58:12;;;;;;;10.55;6.55;;;;;;;;;;10312034;28;20196;-68
2024/01/18 03:03:14;;;;;;;10.82;6.68;;;;;;;;;;10297771;28;20220;-68
2024/01/18 03:08:15;;;;;;;14.98;7.30;;;;;;;;;;10290427;28;20224;-68
2024/01/18 03:13:16;;;;;;;13.25;7.50;;;;;;;;;;10302800;28;20208;-68
2024/01/18 03:18:17;;;;;;;13.23;6.05;;;;;;;;;;10299729;28;20173;-68
2024/01/18 03:23:19;;;;;;;12.27;7.45;;;;;;;;;;10302478;28;20294;-68
2024/01/18 03:28:20;;;;;;;12.25;7.32;;;;;;;;;;10315452;28;20216;-68
2024/01/18 03:33:21;;;;;;;9.88;6.90;;;;;;;;;;10312341;28;20260;-68
2024/01/18 03:38:22;;;;;;;12.80;7.63;;;;;;;;;;10324723;28;20287;-67
2024/01/18 03:43:23;;;;;;;16.58;6.88;;;;;;;;;;10328687;28;20270;-68
2024/01/18 03:48:24;;;;;;;14.35;7.78;;;;;;;;;;10338724;28;20665;-68
2024/01/18 03:53:25;;;;;;;13.52;7.43;;;;;;;;;;10303654;28;20770;-68
2024/01/18 03:58:26;;;;;;;15.73;6.75;;;;;;;;;;10328790;28;20276;-67
2024/01/18 04:03:27;;;;;;;12.35;7.18;;;;;;;;;;10313023;28;20287;-68
2024/01/18 04:08:28;;;;;;;17.20;7.82;;;;;;;;;;10318399;28;20208;-68
2024/01/18 04:13:29;;;;;;;11.35;6.82;;;;;;;;;;10325749;28;20212;-68
2024/01/18 04:18:30;;;;;;;12.35;6.78;;;;;;;;;;10309137;28;20660;-68
2024/01/18 04:23:31;;;;;;;13.80;7.32;;;;;;;;;;10316000;28;20213;-68
2024/01/18 04:28:32;;;;;;;13.05;7.88;;;;;;;;;;10325525;28;20240;-68
2024/01/18 04:33:33;;;;;;;12.40;7.82;;;;;;;;;;10323334;28;20319;-67
2024/01/18 04:38:34;;;;;;;11.50;6.82;;;;;;;;;;10317832;28;20209;-68
2024/01/18 04:43:35;;;;;;;11.90;7.70;;;;;;;;;;10315830;28;20239;-68
2024/01/18 04:48:37;;;;;;;16.83;8.07;;;;;;;;;;10322233;28;20208;-67
2024/01/18 04:53:38;;;;;;;15.43;8.80;;;;;;;;;;10312632;28;20215;-68
2024/01/18 04:58:39;;;;;;;11.07;7.68;;;;;;;;;;10325837;28;20622;-68
2024/01/18 05:03:40;;;;;;;18.10;7.80;;;;;;;;;;10318574;28;20304;-67
2024/01/18 05:08:41;;;;;;;19.00;7.93;;;;;;;;;;10316401;28;20214;-68
2024/01/18 05:13:42;;;;;;;13.98;8.23;;;;;;;;;;10316865;28;20212;-68
2024/01/18 05:18:43;;;;;;;19.25;7.72;;;;;;;;;;10310781;28;20284;-68
2024/01/18 05:23:46;;;;;;;15.48;8.35;;;;;;;;;;10326127;28;20751;-68
2024/01/18 05:28:47;;;;;;;16.92;7.97;;;;;;;;;;10295346;28;20215;-68
2024/01/18 05:33:48;;;;;;;13.57;8.35;;;;;;;;;;10312428;28;20606;-68
2024/01/18 05:38:49;;;;;;;15.70;7.80;;;;;;;;;;10320494;28;20764;-68
2024/01/18 05:43:50;;;;;;;18.67;7.97;;;;;;;;;;10290386;28;20279;-68
2024/01/18 05:48:51;;;;;;;16.50;8.38;;;;;;;;;;10292029;28;20205;-67
2024/01/18 05:53:52;;;;;;;13.98;8.40;;;;;;;;;;10309019;28;20276;-68
2024/01/18 05:58:53;;;;;;;15.85;7.47;;;;;;;;;;10324809;28;20220;-68
2024/01/18 06:03:54;;;;;;;13.82;7.00;;;;;;;;;;10315679;28;20606;-67
2024/01/18 06:08:55;;;;;;;13.40;7.47;;;;;;;;;;10301293;28;20217;-68
2024/01/18 06:13:57;;;;;;;10.32;6.85;;;;;;;;;;10294326;28;20212;-69
2024/01/18 06:18:58;;;;;;;10.80;7.80;;;;;;;;;;10301744;28;20196;-68
2024/01/18 06:23:59;;;;;;;25.38;8.63;;;;;;;;;;10312567;28;20228;-67
2024/01/18 06:29:00;;;;;;;16.38;8.55;;;;;;;;;;10301770;28;20610;-71
2024/01/18 06:34:01;;;;;;;17.63;8.55;;;;;;;;;;10310736;28;20240;-69
2024/01/18 06:39:02;;;;;;;15.90;8.35;;;;;;;;;;10317724;28;20226;-68
2024/01/18 06:44:05;;;;;;;32.70;12.75;;;;;;;;;;10321633;28;20231;-68
2024/01/18 06:49:07;;;;;;;15.57;8.60;;;;;;;;;;10307827;28;20296;-69
2024/01/18 06:54:08;;;;;;;15.52;8.40;;;;;;;;;;10286294;28;20224;-69
2024/01/18 06:59:09;;;;;;;19.27;8.82;;;;;;;;;;10308012;28;20272;-68
2024/01/18 07:04:11;;;;;;;20.73;9.73;;;;;;;;;;10312749;28;20235;-68
2024/01/18 07:09:12;;;;;;;18.35;10.02;;;;;;;;;;10311210;28;20348;-69
2024/01/18 07:14:13;;;;;;;20.10;9.15;;;;;;;;;;10301755;28;20216;-69
2024/01/18 07:19:14;;;;;;;21.77;10.23;;;;;;;;;;10305323;28;20223;-69
2024/01/18 07:24:15;;;;;;;17.58;9.52;;;;;;;;;;10287203;28;20746;-69
2024/01/18 07:29:16;;;;;;;18.55;9.05;;;;;;;;;;10272989;28;20271;-69
2024/01/18 07:34:17;;;;;;;18.65;9.45;;;;;;;;;;10319576;28;20285;-68
2024/01/18 07:39:19;;;;;;;23.05;9.75;;;;;;;;;;10308545;28;20194;-68
2024/01/18 07:44:20;;;;;;;18.63;9.90;;;;;;;;;;10311134;28;20214;-71
2024/01/18 07:49:21;;;;;;;19.55;10.05;;;;;;;;;;10313649;28;20240;-69
2024/01/18 07:54:22;;;;;;;24.10;10.82;;;;;;;;;;10293611;28;20308;-69
2024/01/18 07:59:23;;;;;;;16.63;10.20;;;;;;;;;;10296971;28;20211;-69
2024/01/18 08:04:25;;;;;;;20.85;10.65;;;;;;;;;;10302499;28;20357;-68
2024/01/18 08:09:26;;;;;;;16.90;9.85;;;;;;;;;;10316826;28;20259;-69
2024/01/18 08:14:27;;;;;;;38.30;11.18;;;;;;;;;;10305987;28;20255;-68
2024/01/18 08:19:28;;;;;;;22.40;10.25;;;;;;;;;;10327798;28;20288;-68
2024/01/18 08:24:29;;;;;;;22.77;11.52;;;;;;;;;;10314524;28;20241;-68
2024/01/18 08:29:30;;;;;;;18.98;10.18;;;;;;;;;;10322140;28;20213;-69
2024/01/18 08:34:31;;;;;;;20.13;10.82;;;;;;;;;;10332421;28;20229;-68
2024/01/18 08:39:32;;;;;;;21.65;10.48;;;;;;;;;;10306539;28;20195;-68
2024/01/18 08:44:33;;;;;;;21.55;10.65;;;;;;;;;;10299017;28;20204;-69
2024/01/18 08:49:35;;;;;;;18.55;11.48;;;;;;;;;;10330113;28;20208;-68
2024/01/18 08:54:36;;;;;;;21.38;10.68;;;;;;;;;;10319800;28;20200;-68
2024/01/18 08:59:37;;;;;;;24.52;10.80;;;;;;;;;;10297133;28;20181;-68
2024/01/18 09:04:38;;;;;;;17.45;10.77;;;;;;;;;;10307652;28;20243;-68
2024/01/18 09:09:39;;;;;;;20.20;10.18;;;;;;;;;;10291973;28;21523;-69
2024/01/18 09:14:40;;;;;;;25.80;10.53;;;;;;;;;;10320142;28;20307;-69
2024/01/18 09:19:43;;;;;;;24.70;11.45;;;;;;;;;;10318298;28;20620;-69
2024/01/18 09:24:44;;;;;;;21.70;11.05;;;;;;;;;;10324214;28;20294;-68
2024/01/18 09:29:47;;;;;;;22.48;11.82;;;;;;;;;;10318959;28;20251;-68
2024/01/18 09:34:48;;;;;;;27.02;11.75;;;;;;;;;;10318050;28;20261;-68
2024/01/18 09:39:49;;;;;;;22.83;11.23;;;;;;;;;;10320125;28;20196;-68
2024/01/18 09:44:52;;;;;;;24.17;12.73;;;;;;;;;;10321353;28;20298;-68
2024/01/18 09:49:53;;;;;;;21.17;12.05;;;;;;;;;;10284831;28;20259;-68
2024/01/18 09:54:54;;;;;;;18.27;10.98;;;;;;;;;;10300932;28;20208;-68
2024/01/18 09:59:58;;;;;;;20.38;11.35;;;;;;;;;;10297176;28;20288;-68
2024/01/18 10:05:00;;;;;;;22.35;11.77;;;;;;;;;;10296616;28;20307;-68
2024/01/18 10:10:01;;;;;;;23.52;11.70;;;;;;;;;;10311568;28;20274;-69
2024/01/18 10:15:02;;;;;;;20.88;11.02;;;;;;;;;;10303802;28;20292;-68
2024/01/18 10:20:04;;;;;;;22.65;11.98;;;;;;;;;;10291501;28;20281;-68
2024/01/18 10:25:10;;;;;;;30.60;13.07;;;;;;;;;;10290613;28;20221;-68
2024/01/18 10:30:12;;;;;;;24.45;12.98;;;;;;;;;;10322451;28;20273;-68
2024/01/18 10:35:20;;;;;;;24.27;12.57;;;;;;;;;;10313234;28;20250;-68
2024/01/18 10:40:21;;;;;;;19.33;11.98;;;;;;;;;;10303893;28;20279;-68
2024/01/18 10:45:22;;;;;;;23.38;12.25;;;;;;;;;;10277478;28;20243;-68
2024/01/18 10:50:24;;;;;;;20.17;11.93;;;;;;;;;;10306279;28;20238;-68
2024/01/18 10:55:25;;;;;;;27.00;13.35;;;;;;;;;;10304858;28;20216;-68
2024/01/18 11:00:26;;;;;;;23.15;12.68;;;;;;;;;;10298499;28;20238;-69
2024/01/18 11:05:27;;;;;;;34.65;14.27;;;;;;;;;;10305050;28;20831;-70
2024/01/18 11:10:28;;;;;;;27.33;14.02;;;;;;;;;;10303456;28;20241;-70
2024/01/18 11:15:29;;;;;;;21.65;12.77;;;;;;;;;;10305708;28;20292;-69
2024/01/18 11:20:31;;;;;;;20.70;11.85;;;;;;;;;;10283648;28;20191;-70
2024/01/18 11:25:33;;;;;;;24.00;13.00;;;;;;;;;;10314317;28;20209;-70
2024/01/18 11:30:35;;;;;;;19.98;12.15;;;;;;;;;;10297751;28;20236;-72
2024/01/18 11:35:36;;;;;;;19.73;11.75;;;;;;;;;;10241569;28;20248;-71
2024/01/18 11:40:37;;;;;;;22.40;12.10;;;;;;;;;;10241580;28;20807;-71
2024/01/18 11:45:38;;;;;;;14.13;10.45;;;;;;;;;;10265446;28;20202;-71
2024/01/18 11:50:39;;;;;;;15.77;10.80;;;;;;;;;;10261942;28;20267;-71
2024/01/18 11:55:46;;;;;;;11.95;9.00;;;;;;;;;;10248669;28;20264;-71
2024/01/18 12:00:48;;;;;;;13.30;8.50;;;;;;;;;;10268346;28;20213;-71
2024/01/18 12:05:49;;;;;;;15.27;8.68;;;;;;;;;;10266265;28;20205;-72
2024/01/18 12:10:50;;;;;;;15.57;8.27;;;;;;;;;;10275847;28;20729;-71
2024/01/18 12:15:53;;;;;;;14.10;8.98;;;;;;;;;;10278436;28;20213;-72
2024/01/18 12:20:53;;;;;;;13.40;8.27;;;;;;;;;;10279521;28;20636;-71
2024/01/18 12:25:55;;;;;;;14.63;8.73;;;;;;;;;;10294091;28;20225;-71
2024/01/18 12:31:01;;;;;;;14.82;8.35;;;;;;;;;;10277432;28;20228;-71
2024/01/18 12:36:03;;;;;;;14.65;8.63;;;;;;;;;;10276596;28;20208;-72
2024/01/18 12:41:04;;;;;;;9.82;7.40;;;;;;;;;;10243944;28;20189;-71
2024/01/18 12:46:05;;;;;;;15.15;8.43;;;;;;;;;;10269649;28;20217;-71
2024/01/18 12:51:06;;;;;;;11.23;6.65;;;;;;;;;;10251602;28;20273;-71
2024/01/18 12:56:11;;;;;;;11.30;7.28;;;;;;;;;;10267767;28;20301;-71
2024/01/18 13:01:31;;;;;;;11.70;6.70;;;;;;;;;;10264736;28;20210;-71
2024/01/18 13:06:32;;;;;;;9.02;6.07;;;;;;;;;;10265291;28;20209;-71
2024/01/18 13:11:34;;;;;;;9.68;6.30;;;;;;;;;;10272035;28;20217;-71
2024/01/18 13:16:36;;;;;;;8.45;6.03;;;;;;;;;;10255331;28;20218;-71
2024/01/18 13:21:38;;;;;;;11.57;6.22;;;;;;;;;;10257671;28;20274;-71
2024/01/18 13:26:40;;;;;;;8.73;5.90;;;;;;;;;;10268192;28;20209;-72
2024/01/18 13:31:41;;;;;;;7.50;5.82;;;;;;;;;;10274802;28;20256;-71
2024/01/18 13:36:42;;;;;;;15.13;6.43;;;;;;;;;;10307005;28;20220;-71
2024/01/18 13:41:44;;;;;;;6.72;5.32;;;;;;;;;;10291838;28;20248;-71
2024/01/18 13:46:45;;;;;;;8.90;5.28;;;;;;;;;;10288817;28;20304;-71
2024/01/18 13:51:47;;;;;;;7.13;4.95;;;;;;;;;;10325139;28;20200;-71
2024/01/18 13:56:48;;;;;;;6.50;4.82;;;;;;;;;;10287836;28;20209;-71
2024/01/18 14:01:49;;;;;;;5.70;4.43;;;;;;;;;;10300608;28;20212;-71
2024/01/18 14:06:50;;;;;;;5.93;4.38;;;;;;;;;;10301954;28;20213;-70
2024/01/18 14:11:51;;;;;;;4.90;4.45;;;;;;;;;;10302917;28;20238;-70
2024/01/18 14:16:52;;;;;;;6.05;3.67;;;;;;;;;;10299493;28;20211;-70
2024/01/18 14:21:53;;;;;;;7.43;4.63;;;;;;;;;;10293800;28;20185;-70
2024/01/18 14:26:54;;;;;;;7.45;5.50;;;;;;;;;;10324347;28;20569;-70
2024/01/18 14:31:55;;;;;;;16.33;8.07;;;;;;;;;;10303684;28;20239;-70
2024/01/18 14:36:56;;;;;;;13.00;8.52;;;;;;;;;;10307162;28;20212;-71
2024/01/18 14:41:57;;;;;;;15.98;9.63;;;;;;;;;;10301042;28;20200;-70
2024/01/18 14:46:58;;;;;;;21.35;9.50;;;;;;;;;;10288290;28;20204;-71
2024/01/18 14:52:00;;;;;;;14.50;8.93;;;;;;;;;;10301359;28;20186;-70
2024/01/18 14:57:01;;;;;;;16.70;8.88;;;;;;;;;;10300842;28;20213;-70
2024/01/18 15:02:03;;;;;;;12.52;8.77;;;;;;;;;;10314706;28;20219;-70
2024/01/18 15:07:04;;;;;;;14.88;8.82;;;;;;;;;;10280171;28;20240;-69
2024/01/18 15:12:06;;;;;;;11.93;8.63;;;;;;;;;;10314866;28;20666;-70
2024/01/18 15:17:07;;;;;;;17.70;9.32;;;;;;;;;;10298631;28;20213;-70
2024/01/18 15:22:08;;;;;;;18.50;10.38;;;;;;;;;;10317216;28;20189;-70
2024/01/18 15:27:09;;;;;;;12.63;8.07;;;;;;;;;;10319369;28;20247;-70
2024/01/18 15:32:10;;;;;;;11.75;8.70;;;;;;;;;;10288581;28;20227;-70
2024/01/18 15:37:11;;;;;;;17.05;8.02;;;;;;;;;;10321553;28;20244;-70
2024/01/18 15:42:12;;;;;;;11.57;8.52;;;;;;;;;;10302787;28;20830;-70
2024/01/18 15:47:16;;;;;;;15.05;8.93;;;;;;;;;;10318248;28;20224;-70
2024/01/18 15:52:17;;;;;;;20.58;10.25;;;;;;;;;;10305756;28;20292;-69
2024/01/18 15:57:18;;;;;;;13.15;8.50;;;;;;;;;;10327213;28;20676;-70
2024/01/18 16:02:19;;;;;;;18.02;9.75;;;;;;;;;;10292614;28;20220;-70
2024/01/18 16:07:20;;;;;;;17.40;8.90;;;;;;;;;;10290745;28;20209;-69
2024/01/18 16:12:21;;;;;;;16.60;9.75;;;;;;;;;;10329736;28;20212;-69
2024/01/18 16:17:22;;;;;;;11.73;7.53;;;;;;;;;;10316569;28;20232;-70
2024/01/18 16:22:23;;;;;;;10.25;7.25;;;;;;;;;;10303508;28;20681;-69
2024/01/18 16:27:24;;;;;;;9.15;6.57;;;;;;;;;;10331340;28;20240;-70
2024/01/18 16:32:25;;;;;;;10.63;6.80;;;;;;;;;;10323135;28;20220;-69
2024/01/18 16:37:26;;;;;;;13.57;7.43;;;;;;;;;;10321551;28;20346;-69
2024/01/18 16:42:27;;;;;;;8.05;5.00;;;;;;;;;;10296476;28;20582;-69
2024/01/18 16:47:28;;;;;;;6.10;5.50;;;;;;;;;;10306768;28;20244;-69
2024/01/18 16:52:29;;;;;;;10.18;5.25;;;;;;;;;;10326591;28;20200;-69
2024/01/18 16:57:31;;;;;;;6.72;4.85;;;;;;;;;;10315017;28;20748;-69
2024/01/18 17:02:32;;;;;;;4.70;3.80;;;;;;;;;;10325442;28;20275;-69
2024/01/18 17:07:34;;;;;;;7.82;4.63;;;;;;;;;;10313036;28;20221;-69
2024/01/18 17:12:35;;;;;;;6.07;4.13;;;;;;;;;;10286908;28;20649;-69
2024/01/18 17:17:36;;;;;;;7.95;3.38;;;;;;;;;;10320650;28;20279;-69
2024/01/18 17:22:38;;;;;;;4.10;3.70;;;;;;;;;;10296727;28;20197;-69
2024/01/18 17:27:39;;;;;;;6.03;4.05;;;;;;;;;;10323762;28;20227;-69
2024/01/18 17:32:40;;;;;;;4.40;4.00;;;;;;;;;;10312682;28;20225;-69
2024/01/18 17:37:45;;;;;;;3.70;3.25;;;;;;;;;;10312373;28;20181;-69
2024/01/18 17:42:46;;;;;;;7.28;3.30;;;;;;;;;;10315281;28;20182;-69
2024/01/18 17:47:47;;;;;;;6.18;3.88;;;;;;;;;;10305733;28;20281;-70
2024/01/18 17:52:48;;;;;;;7.50;3.63;;;;;;;;;;10324708;28;20276;-69
2024/01/18 17:57:49;;;;;;;3.78;3.50;;;;;;;;;;10288036;28;20247;-69
2024/01/18 18:02:50;;;;;;;6.22;3.75;;;;;;;;;;10310597;28;20274;-69
2024/01/18 18:07:53;;;;;;;9.35;3.45;;;;;;;;;;10316893;28;20244;-69
2024/01/18 18:12:54;;;;;;;6.07;4.47;;;;;;;;;;10327109;28;20193;-69
2024/01/18 18:17:57;;;;;;;6.55;4.25;;;;;;;;;;10310248;28;20192;-69
2024/01/18 18:22:58;;;;;;;4.40;4.00;;;;;;;;;;10310939;28;20197;-69
2024/01/18 18:27:59;;;;;;;8.90;3.50;;;;;;;;;;10312050;28;20243;-69
2024/01/18 18:33:01;;;;;;;4.95;3.70;;;;;;;;;;10314813;28;20231;-69
2024/01/18 18:38:02;;;;;;;4.43;4.00;;;;;;;;;;10317282;28;20252;-69
2024/01/18 18:43:06;;;;;;;5.78;3.42;;;;;;;;;;10302404;28;20211;-69
2024/01/18 18:48:07;;;;;;;5.35;4.20;;;;;;;;;;10328555;28;20217;-69
2024/01/18 18:53:08;;;;;;;4.30;3.22;;;;;;;;;;10306332;28;20219;-69
2024/01/18 18:58:09;;;;;;;11.65;7.03;;;;;;;;;;10272803;28;20676;-69
2024/01/18 19:03:10;;;;;;;5.38;3.17;;;;;;;;;;10293158;28;20238;-70
2024/01/18 19:08:11;;;;;;;4.60;3.58;;;;;;;;;;10313860;28;20353;-69
2024/01/18 19:13:13;;;;;;;6.05;3.67;;;;;;;;;;10303059;28;20215;-69
2024/01/18 19:18:14;;;;;;;6.70;4.32;;;;;;;;;;10299852;28;20219;-69
2024/01/18 19:23:15;;;;;;;6.65;4.05;;;;;;;;;;10306017;28;20951;-69
2024/01/18 19:28:16;;;;;;;7.18;4.68;;;;;;;;;;10315390;28;20219;-69
2024/01/18 19:33:17;;;;;;;6.63;4.03;;;;;;;;;;10304267;28;20235;-69
2024/01/18 19:38:18;;;;;;;4.75;3.38;;;;;;;;;;10307000;28;20769;-68
2024/01/18 19:43:19;;;;;;;6.07;3.15;;;;;;;;;;10303969;28;20217;-69
2024/01/18 19:48:20;;;;;;;6.35;3.40;;;;;;;;;;10310152;28;20246;-69
2024/01/18 19:53:21;;;;;;;3.38;3.10;;;;;;;;;;10299449;28;21737;-69
2024/01/18 19:58:22;;;;;;;4.50;3.58;;;;;;;;;;10307133;28;20204;-69
2024/01/18 20:03:23;;;;;;;4.25;3.67;;;;;;;;;;10308348;28;20224;-69
2024/01/18 20:08:25;;;;;;;5.45;3.63;;;;;;;;;;10296934;28;20327;-69
2024/01/18 20:13:27;;;;;;;6.80;4.82;;;;;;;;;;10280909;28;21024;-69
2024/01/18 20:18:27;;;;;;;13.48;5.20;;;;;;;;;;10305459;28;20738;-69
2024/01/18 20:23:29;;;;;;;12.70;6.40;;;;;;;;;;10323302;28;20219;-69
2024/01/18 20:28:30;;;;;;;7.68;4.43;;;;;;;;;;10298539;28;20216;-69
2024/01/18 20:33:31;;;;;;;6.72;5.47;;;;;;;;;;10284837;28;20271;-69
2024/01/18 20:38:32;;;;;;;5.47;4.82;;;;;;;;;;10313983;28;20672;-70
2024/01/18 20:43:33;;;;;;;7.60;4.38;;;;;;;;;;10299033;28;20217;-69
2024/01/18 20:48:34;;;;;;;6.88;4.32;;;;;;;;;;10306179;28;20758;-69
2024/01/18 20:53:35;;;;;;;7.30;4.00;;;;;;;;;;10282902;28;20215;-69
2024/01/18 20:58:36;;;;;;;8.15;3.50;;;;;;;;;;10305876;28;20196;-69
2024/01/18 21:03:37;;;;;;;6.60;4.90;;;;;;;;;;10290631;28;20305;-69
2024/01/18 21:08:38;;;;;;;9.05;4.38;;;;;;;;;;10304447;28;20231;-68
2024/01/18 21:13:39;;;;;;;4.97;3.70;;;;;;;;;;10291763;28;20557;-68
2024/01/18 21:18:40;;;;;;;10.23;4.03;;;;;;;;;;10316470;28;20288;-69
2024/01/18 21:23:42;;;;;;;5.23;3.40;;;;;;;;;;10296014;28;20725;-68
2024/01/18 21:28:43;;;;;;;11.27;5.17;;;;;;;;;;10300777;28;20757;-68
2024/01/18 21:33:44;;;;;;;3.50;3.03;;;;;;;;;;10315560;28;20259;-68
2024/01/18 21:38:45;;;;;;;4.13;2.85;;;;;;;;;;10324071;28;20656;-68
2024/01/18 21:43:46;;;;;;;9.60;2.63;;;;;;;;;;10316278;28;20218;-68
2024/01/18 21:48:47;;;;;;;3.07;2.77;;;;;;;;;;10319679;28;20212;-68
2024/01/18 21:53:48;;;;;;;4.27;2.40;;;;;;;;;;10332450;28;20227;-68
2024/01/18 21:58:49;;;;;;;3.28;2.58;;;;;;;;;;10320166;28;20607;-69
2024/01/18 22:03:50;;;;;;;3.73;2.73;;;;;;;;;;10319800;28;20217;-68
2024/01/18 22:08:51;;;;;;;2.47;2.27;;;;;;;;;;10305961;28;20213;-68
2024/01/18 22:13:52;;;;;;;3.00;2.70;;;;;;;;;;10309329;28;20783;-68
2024/01/18 22:18:53;;;;;;;2.13;2.00;;;;;;;;;;10311417;28;20251;-68
2024/01/18 22:23:54;;;;;;;1.97;1.87;;;;;;;;;;10321253;28;20213;-68
2024/01/18 22:28:55;;;;;;;7.97;2.83;;;;;;;;;;10306410;28;20301;-68
2024/01/18 22:33:56;;;;;;;2.53;2.43;;;;;;;;;;10322182;28;20220;-69
2024/01/18 22:38:57;;;;;;;6.90;2.53;;;;;;;;;;10319913;28;20201;-69
2024/01/18 22:43:58;;;;;;;6.25;2.10;;;;;;;;;;10321357;28;20282;-68
2024/01/18 22:48:59;;;;;;;3.07;2.03;;;;;;;;;;10308562;28;20605;-69
2024/01/18 22:54:00;;;;;;;4.93;2.73;;;;;;;;;;10304302;28;20219;-68
2024/01/18 22:59:01;;;;;;;5.20;2.60;;;;;;;;;;10313823;28;20200;-67
2024/01/18 23:04:02;;;;;;;2.50;2.40;;;;;;;;;;10301422;28;20226;-68
2024/01/18 23:09:04;;;;;;;2.83;2.60;;;;;;;;;;10305873;28;20310;-68
2024/01/18 23:14:05;;;;;;;4.67;2.80;;;;;;;;;;10315987;28;20664;-68
2024/01/18 23:19:06;;;;;;;2.95;2.67;;;;;;;;;;10296439;28;20220;-69
2024/01/18 23:24:08;;;;;;;3.67;3.17;;;;;;;;;;10312857;28;20212;-69
2024/01/18 23:29:09;;;;;;;3.33;3.03;;;;;;;;;;10297326;28;20263;-69
2024/01/18 23:34:10;;;;;;;6.80;3.90;;;;;;;;;;10319268;28;20233;-68
2024/01/18 23:39:11;;;;;;;5.30;3.97;;;;;;;;;;10316800;28;20223;-69
2024/01/18 23:44:12;;;;;;;6.90;4.82;;;;;;;;;;10315386;28;20247;-70
2024/01/18 23:49:13;;;;;;;11.00;3.50;;;;;;;;;;10313616;28;20335;-68
2024/01/18 23:54:16;;;;;;;8.13;4.90;;;;;;;;;;10319016;28;20216;-69
2024/01/18 23:59:17;;;;;;;5.60;3.63;;;;;;;;;;10308464;28;20192;-68
